North New Portland, Maine
Current Conditions -  °F | °C
As of 12:55 PM on Saturday 20 Dec 2014 (Local Time) from KWVL Reporting Station
Overcast Overcast  
Wind Chill: 17°   Ceiling: 1500
Heat Index: 25°   Visibility: 10mi
Dew Point: 14°   Wind: 7mph
Humidity: 64%   Direction: 40°NE
Pressure: 30.28"   Gusts: NA
Location:  44.92°N, 70.02°W
Report Text: KWVL 201755Z 04006KT 10SM OVC015 M04/M10 A3028 RMK AO1 11040 21080 57010
Loading
Personal Weather Stations






























Interactive Weather Map New forecast layout! Learn more

10-Day Weather Forecast

Advertisements
Track Severe Weather on mobile